Terminal Aerodrome Forecast
Issued by NWS Columbia, SC

Home | Current Version | Previous Version | Text Only | Print | Product List | Glossary On
Versions: 1 2 3 4 5 6 7 8 9 10 11 12 13 14 15 16 17 18 19 20 21 22 23 24 25 26 27 28 29 30 31 32 33 34 35 36 37 38 39 40 41 42 43 44 45 46 47 48
000
FTAK31 PAJN 231700
TAFAGS
TAF
PAGS 231737Z 2318/2418 VRB06KT P6SM VCFG FEW020 BKN060
      TEMPO 2319/2320 00000KT 2SM BR OVC003
     FM232000 33006KT P6SM VCFG SCT080
     FM240700 00000KT P6SM SCT015
      AMD NOT SKED=

USA.gov is the U.S. government's official web portal to all federal, state and local government web resources and services.